sensor_id;sensor_type;location;lat;lon;timestamp;P1;durP1;ratioP1;P2;durP2;ratioP2
8232;SDS011;4157;48.074;9.952;2023-05-09T00:02:30;27.83;;;22.65;;
8232;SDS011;4157;48.074;9.952;2023-05-09T00:04:59;27.35;;;22.70;;
8232;SDS011;4157;48.074;9.952;2023-05-09T00:07:28;31.27;;;24.85;;
8232;SDS011;4157;48.074;9.952;2023-05-09T00:09:57;29.77;;;24.42;;
8232;SDS011;4157;48.074;9.952;2023-05-09T00:12:25;27.95;;;23.65;;
8232;SDS011;4157;48.074;9.952;2023-05-09T00:14:53;25.85;;;21.40;;
8232;SDS011;4157;48.074;9.952;2023-05-09T00:17:21;26.73;;;22.60;;
8232;SDS011;4157;48.074;9.952;2023-05-09T00:19:49;26.92;;;21.60;;
8232;SDS011;4157;48.074;9.952;2023-05-09T00:22:17;21.38;;;18.67;;
8232;SDS011;4157;48.074;9.952;2023-05-09T00:24:49;25.25;;;20.60;;
8232;SDS011;4157;48.074;9.952;2023-05-09T00:27:18;21.40;;;18.80;;
8232;SDS011;4157;48.074;9.952;2023-05-09T00:29:49;23.63;;;18.90;;
8232;SDS011;4157;48.074;9.952;2023-05-09T00:32:16;24.27;;;20.42;;
8232;SDS011;4157;48.074;9.952;2023-05-09T00:34:44;25.27;;;21.77;;
8232;SDS011;4157;48.074;9.952;2023-05-09T00:37:11;23.38;;;20.58;;
8232;SDS011;4157;48.074;9.952;2023-05-09T00:39:39;22.73;;;20.15;;
8232;SDS011;4157;48.074;9.952;2023-05-09T00:42:07;22.73;;;19.75;;
8232;SDS011;4157;48.074;9.952;2023-05-09T00:44:39;22.85;;;19.85;;
8232;SDS011;4157;48.074;9.952;2023-05-09T00:47:07;25.85;;;22.10;;
8232;SDS011;4157;48.074;9.952;2023-05-09T00:49:35;26.23;;;20.58;;
8232;SDS011;4157;48.074;9.952;2023-05-09T00:52:06;24.90;;;20.58;;
8232;SDS011;4157;48.074;9.952;2023-05-09T00:54:35;24.65;;;21.92;;
8232;SDS011;4157;48.074;9.952;2023-05-09T00:57:03;21.20;;;18.45;;
8232;SDS011;4157;48.074;9.952;2023-05-09T00:59:31;22.25;;;18.92;;
8232;SDS011;4157;48.074;9.952;2023-05-09T01:02:00;21.75;;;18.85;;
8232;SDS011;4157;48.074;9.952;2023-05-09T01:04:28;22.42;;;19.98;;
8232;SDS011;4157;48.074;9.952;2023-05-09T01:07:01;22.52;;;18.92;;
8232;SDS011;4157;48.074;9.952;2023-05-09T01:09:31;23.50;;;19.90;;
8232;SDS011;4157;48.074;9.952;2023-05-09T01:12:15;21.50;;;18.92;;
8232;SDS011;4157;48.074;9.952;2023-05-09T01:14:50;24.90;;;20.42;;
8232;SDS011;4157;48.074;9.952;2023-05-09T01:19:58;23.65;;;19.85;;
8232;SDS011;4157;48.074;9.952;2023-05-09T01:22:28;22.75;;;17.67;;
8232;SDS011;4157;48.074;9.952;2023-05-09T01:25:01;22.15;;;19.02;;
8232;SDS011;4157;48.074;9.952;2023-05-09T01:27:36;24.10;;;19.13;;
8232;SDS011;4157;48.074;9.952;2023-05-09T01:30:11;23.92;;;18.98;;
8232;SDS011;4157;48.074;9.952;2023-05-09T01:32:39;23.10;;;19.05;;
8232;SDS011;4157;48.074;9.952;2023-05-09T01:35:10;22.08;;;19.30;;
8232;SDS011;4157;48.074;9.952;2023-05-09T01:37:43;22.15;;;18.48;;
8232;SDS011;4157;48.074;9.952;2023-05-09T01:40:13;20.52;;;18.25;;
8232;SDS011;4157;48.074;9.952;2023-05-09T01:42:42;24.70;;;19.75;;
8232;SDS011;4157;48.074;9.952;2023-05-09T01:45:12;24.00;;;19.60;;
8232;SDS011;4157;48.074;9.952;2023-05-09T01:47:40;22.85;;;19.30;;
8232;SDS011;4157;48.074;9.952;2023-05-09T01:50:09;21.17;;;18.63;;
8232;SDS011;4157;48.074;9.952;2023-05-09T01:52:37;23.95;;;20.40;;
8232;SDS011;4157;48.074;9.952;2023-05-09T01:55:06;21.30;;;18.73;;
8232;SDS011;4157;48.074;9.952;2023-05-09T01:57:35;25.90;;;20.77;;
8232;SDS011;4157;48.074;9.952;2023-05-09T02:00:05;22.17;;;19.60;;
8232;SDS011;4157;48.074;9.952;2023-05-09T02:02:41;25.88;;;21.75;;
8232;SDS011;4157;48.074;9.952;2023-05-09T02:05:09;25.75;;;21.02;;
8232;SDS011;4157;48.074;9.952;2023-05-09T02:07:38;25.45;;;20.60;;
8232;SDS011;4157;48.074;9.952;2023-05-09T02:10:08;23.77;;;19.30;;
8232;SDS011;4157;48.074;9.952;2023-05-09T02:12:46;25.55;;;21.65;;
8232;SDS011;4157;48.074;9.952;2023-05-09T02:15:13;24.77;;;20.27;;
8232;SDS011;4157;48.074;9.952;2023-05-09T02:17:42;24.98;;;21.23;;
8232;SDS011;4157;48.074;9.952;2023-05-09T02:20:13;24.88;;;19.83;;
8232;SDS011;4157;48.074;9.952;2023-05-09T02:22:41;27.25;;;21.50;;
8232;SDS011;4157;48.074;9.952;2023-05-09T02:25:10;25.73;;;21.15;;
8232;SDS011;4157;48.074;9.952;2023-05-09T02:27:39;26.17;;;20.38;;
8232;SDS011;4157;48.074;9.952;2023-05-09T02:30:08;22.70;;;19.13;;
8232;SDS011;4157;48.074;9.952;2023-05-09T02:32:37;23.00;;;18.65;;
8232;SDS011;4157;48.074;9.952;2023-05-09T02:35:09;24.50;;;19.23;;
8232;SDS011;4157;48.074;9.952;2023-05-09T02:37:38;24.55;;;19.65;;
8232;SDS011;4157;48.074;9.952;2023-05-09T02:40:08;23.77;;;19.30;;
8232;SDS011;4157;48.074;9.952;2023-05-09T02:42:36;23.02;;;19.17;;
8232;SDS011;4157;48.074;9.952;2023-05-09T02:45:04;22.27;;;18.17;;
8232;SDS011;4157;48.074;9.952;2023-05-09T02:47:36;24.50;;;19.48;;
8232;SDS011;4157;48.074;9.952;2023-05-09T02:50:05;23.35;;;18.88;;
8232;SDS011;4157;48.074;9.952;2023-05-09T02:52:36;21.27;;;18.48;;
8232;SDS011;4157;48.074;9.952;2023-05-09T02:55:04;25.85;;;20.02;;
8232;SDS011;4157;48.074;9.952;2023-05-09T02:57:39;21.85;;;19.50;;
8232;SDS011;4157;48.074;9.952;2023-05-09T03:00:07;25.48;;;20.75;;
8232;SDS011;4157;48.074;9.952;2023-05-09T03:02:35;22.45;;;19.17;;
8232;SDS011;4157;48.074;9.952;2023-05-09T03:05:04;23.77;;;20.80;;
8232;SDS011;4157;48.074;9.952;2023-05-09T03:07:39;23.77;;;19.13;;
8232;SDS011;4157;48.074;9.952;2023-05-09T03:10:07;23.80;;;19.75;;
8232;SDS011;4157;48.074;9.952;2023-05-09T03:12:36;24.77;;;19.60;;
8232;SDS011;4157;48.074;9.952;2023-05-09T03:15:05;24.38;;;19.38;;
8232;SDS011;4157;48.074;9.952;2023-05-09T03:17:33;22.63;;;19.13;;
8232;SDS011;4157;48.074;9.952;2023-05-09T03:20:01;24.42;;;19.55;;
8232;SDS011;4157;48.074;9.952;2023-05-09T03:22:30;21.50;;;18.27;;
8232;SDS011;4157;48.074;9.952;2023-05-09T03:25:02;23.77;;;19.70;;
8232;SDS011;4157;48.074;9.952;2023-05-09T03:27:32;22.45;;;19.15;;
8232;SDS011;4157;48.074;9.952;2023-05-09T03:30:05;24.77;;;20.35;;
8232;SDS011;4157;48.074;9.952;2023-05-09T03:32:33;27.40;;;21.77;;
8232;SDS011;4157;48.074;9.952;2023-05-09T03:35:01;25.23;;;20.52;;
8232;SDS011;4157;48.074;9.952;2023-05-09T03:37:29;26.08;;;20.05;;
8232;SDS011;4157;48.074;9.952;2023-05-09T03:39:57;25.63;;;21.23;;
8232;SDS011;4157;48.074;9.952;2023-05-09T03:42:30;27.70;;;20.38;;
8232;SDS011;4157;48.074;9.952;2023-05-09T03:45:02;27.40;;;22.15;;
8232;SDS011;4157;48.074;9.952;2023-05-09T03:47:33;24.45;;;20.58;;
8232;SDS011;4157;48.074;9.952;2023-05-09T03:50:02;24.58;;;19.30;;
8232;SDS011;4157;48.074;9.952;2023-05-09T03:52:31;24.35;;;20.33;;
8232;SDS011;4157;48.074;9.952;2023-05-09T03:54:59;23.83;;;19.85;;
8232;SDS011;4157;48.074;9.952;2023-05-09T03:57:33;22.77;;;19.20;;
8232;SDS011;4157;48.074;9.952;2023-05-09T04:00:01;24.55;;;21.23;;
8232;SDS011;4157;48.074;9.952;2023-05-09T04:02:40;26.02;;;21.38;;
8232;SDS011;4157;48.074;9.952;2023-05-09T04:05:12;24.35;;;20.50;;
8232;SDS011;4157;48.074;9.952;2023-05-09T04:07:41;22.85;;;19.55;;
8232;SDS011;4157;48.074;9.952;2023-05-09T04:10:10;24.38;;;20.27;;
8232;SDS011;4157;48.074;9.952;2023-05-09T04:12:39;26.10;;;21.58;;
8232;SDS011;4157;48.074;9.952;2023-05-09T04:15:08;26.77;;;21.13;;
8232;SDS011;4157;48.074;9.952;2023-05-09T04:17:36;25.80;;;22.20;;
8232;SDS011;4157;48.074;9.952;2023-05-09T04:20:05;28.02;;;22.90;;
8232;SDS011;4157;48.074;9.952;2023-05-09T04:22:33;27.23;;;21.98;;
8232;SDS011;4157;48.074;9.952;2023-05-09T04:25:00;26.30;;;21.17;;
8232;SDS011;4157;48.074;9.952;2023-05-09T04:27:29;27.73;;;21.70;;
8232;SDS011;4157;48.074;9.952;2023-05-09T04:29:58;24.67;;;18.85;;
8232;SDS011;4157;48.074;9.952;2023-05-09T04:32:26;23.73;;;20.45;;
8232;SDS011;4157;48.074;9.952;2023-05-09T04:34:56;23.85;;;20.08;;
8232;SDS011;4157;48.074;9.952;2023-05-09T04:37:29;26.95;;;22.13;;
8232;SDS011;4157;48.074;9.952;2023-05-09T04:39:57;27.73;;;21.65;;
8232;SDS011;4157;48.074;9.952;2023-05-09T04:42:35;29.20;;;23.13;;
8232;SDS011;4157;48.074;9.952;2023-05-09T04:45:05;27.52;;;20.90;;
8232;SDS011;4157;48.074;9.952;2023-05-09T04:47:33;26.33;;;20.98;;
8232;SDS011;4157;48.074;9.952;2023-05-09T04:50:02;24.42;;;20.50;;
8232;SDS011;4157;48.074;9.952;2023-05-09T04:52:33;26.25;;;20.58;;
8232;SDS011;4157;48.074;9.952;2023-05-09T04:55:00;24.35;;;19.55;;
8232;SDS011;4157;48.074;9.952;2023-05-09T04:57:33;26.65;;;20.75;;
8232;SDS011;4157;48.074;9.952;2023-05-09T05:00:05;25.02;;;20.88;;
8232;SDS011;4157;48.074;9.952;2023-05-09T05:02:36;26.85;;;20.67;;
8232;SDS011;4157;48.074;9.952;2023-05-09T05:05:04;24.92;;;19.38;;
8232;SDS011;4157;48.074;9.952;2023-05-09T05:07:36;26.77;;;20.92;;
8232;SDS011;4157;48.074;9.952;2023-05-09T05:10:04;26.80;;;20.63;;
8232;SDS011;4157;48.074;9.952;2023-05-09T05:12:34;24.83;;;20.00;;
8232;SDS011;4157;48.074;9.952;2023-05-09T05:15:02;25.83;;;20.75;;
8232;SDS011;4157;48.074;9.952;2023-05-09T05:17:31;26.88;;;19.92;;
8232;SDS011;4157;48.074;9.952;2023-05-09T05:20:01;26.02;;;20.63;;
8232;SDS011;4157;48.074;9.952;2023-05-09T05:22:31;30.50;;;21.55;;
8232;SDS011;4157;48.074;9.952;2023-05-09T05:24:59;28.38;;;21.95;;
8232;SDS011;4157;48.074;9.952;2023-05-09T05:27:28;29.95;;;21.95;;
8232;SDS011;4157;48.074;9.952;2023-05-09T05:29:56;32.28;;;21.42;;
8232;SDS011;4157;48.074;9.952;2023-05-09T05:32:24;24.65;;;20.33;;
8232;SDS011;4157;48.074;9.952;2023-05-09T05:34:53;23.88;;;19.33;;
8232;SDS011;4157;48.074;9.952;2023-05-09T05:37:22;27.85;;;23.55;;
8232;SDS011;4157;48.074;9.952;2023-05-09T05:39:53;26.75;;;21.67;;
8232;SDS011;4157;48.074;9.952;2023-05-09T05:42:21;27.05;;;20.15;;
8232;SDS011;4157;48.074;9.952;2023-05-09T05:44:48;28.80;;;20.85;;
8232;SDS011;4157;48.074;9.952;2023-05-09T05:47:16;27.60;;;20.17;;
8232;SDS011;4157;48.074;9.952;2023-05-09T05:49:45;30.17;;;23.38;;
8232;SDS011;4157;48.074;9.952;2023-05-09T05:52:18;28.15;;;21.75;;
8232;SDS011;4157;48.074;9.952;2023-05-09T05:54:46;29.70;;;23.08;;
8232;SDS011;4157;48.074;9.952;2023-05-09T05:57:14;27.75;;;22.27;;
8232;SDS011;4157;48.074;9.952;2023-05-09T05:59:45;31.67;;;23.40;;
8232;SDS011;4157;48.074;9.952;2023-05-09T06:02:17;33.83;;;24.33;;
8232;SDS011;4157;48.074;9.952;2023-05-09T06:04:46;28.85;;;22.08;;
8232;SDS011;4157;48.074;9.952;2023-05-09T06:07:13;33.08;;;25.45;;
8232;SDS011;4157;48.074;9.952;2023-05-09T06:09:46;34.97;;;24.48;;
8232;SDS011;4157;48.074;9.952;2023-05-09T06:12:13;36.30;;;25.38;;
8232;SDS011;4157;48.074;9.952;2023-05-09T06:14:42;32.17;;;24.83;;
8232;SDS011;4157;48.074;9.952;2023-05-09T06:17:10;35.08;;;25.80;;
8232;SDS011;4157;48.074;9.952;2023-05-09T06:19:38;34.22;;;24.48;;
8232;SDS011;4157;48.074;9.952;2023-05-09T06:22:05;39.22;;;26.70;;
8232;SDS011;4157;48.074;9.952;2023-05-09T06:24:33;34.13;;;25.25;;
8232;SDS011;4157;48.074;9.952;2023-05-09T06:27:02;37.28;;;26.42;;
8232;SDS011;4157;48.074;9.952;2023-05-09T06:29:30;41.47;;;28.58;;
8232;SDS011;4157;48.074;9.952;2023-05-09T06:31:58;39.38;;;28.48;;
8232;SDS011;4157;48.074;9.952;2023-05-09T06:34:25;41.90;;;30.05;;
8232;SDS011;4157;48.074;9.952;2023-05-09T06:36:53;38.65;;;28.23;;
8232;SDS011;4157;48.074;9.952;2023-05-09T06:39:21;34.45;;;25.42;;
8232;SDS011;4157;48.074;9.952;2023-05-09T06:41:49;38.60;;;26.27;;
8232;SDS011;4157;48.074;9.952;2023-05-09T06:44:24;38.03;;;26.75;;
8232;SDS011;4157;48.074;9.952;2023-05-09T06:46:52;40.28;;;27.45;;
8232;SDS011;4157;48.074;9.952;2023-05-09T06:49:20;39.00;;;27.42;;
8232;SDS011;4157;48.074;9.952;2023-05-09T06:51:48;34.67;;;26.33;;
8232;SDS011;4157;48.074;9.952;2023-05-09T06:54:15;41.80;;;29.48;;
8232;SDS011;4157;48.074;9.952;2023-05-09T06:56:43;43.92;;;28.25;;
8232;SDS011;4157;48.074;9.952;2023-05-09T06:59:11;36.53;;;25.33;;
8232;SDS011;4157;48.074;9.952;2023-05-09T07:01:42;38.35;;;27.40;;
8232;SDS011;4157;48.074;9.952;2023-05-09T07:04:09;31.77;;;24.83;;
8232;SDS011;4157;48.074;9.952;2023-05-09T07:06:37;35.45;;;25.25;;
8232;SDS011;4157;48.074;9.952;2023-05-09T07:09:05;35.08;;;26.35;;
8232;SDS011;4157;48.074;9.952;2023-05-09T07:11:33;36.58;;;27.02;;
8232;SDS011;4157;48.074;9.952;2023-05-09T07:14:01;32.85;;;24.58;;
8232;SDS011;4157;48.074;9.952;2023-05-09T07:16:29;37.53;;;26.05;;
8232;SDS011;4157;48.074;9.952;2023-05-09T07:18:58;31.77;;;25.52;;
8232;SDS011;4157;48.074;9.952;2023-05-09T07:21:26;36.25;;;26.80;;
8232;SDS011;4157;48.074;9.952;2023-05-09T07:23:54;31.20;;;24.67;;
8232;SDS011;4157;48.074;9.952;2023-05-09T07:26:21;29.80;;;23.10;;
8232;SDS011;4157;48.074;9.952;2023-05-09T07:28:49;34.17;;;25.42;;
8232;SDS011;4157;48.074;9.952;2023-05-09T07:31:16;34.75;;;25.40;;
8232;SDS011;4157;48.074;9.952;2023-05-09T07:33:47;30.65;;;23.67;;
8232;SDS011;4157;48.074;9.952;2023-05-09T07:36:16;30.65;;;23.27;;
8232;SDS011;4157;48.074;9.952;2023-05-09T07:38:44;31.13;;;22.58;;
8232;SDS011;4157;48.074;9.952;2023-05-09T07:41:15;29.05;;;22.08;;
8232;SDS011;4157;48.074;9.952;2023-05-09T07:43:42;30.35;;;22.92;;
8232;SDS011;4157;48.074;9.952;2023-05-09T07:46:16;29.02;;;21.45;;
8232;SDS011;4157;48.074;9.952;2023-05-09T07:48:43;29.13;;;22.00;;
8232;SDS011;4157;48.074;9.952;2023-05-09T07:51:11;29.60;;;21.77;;
8232;SDS011;4157;48.074;9.952;2023-05-09T07:53:40;30.35;;;22.40;;
8232;SDS011;4157;48.074;9.952;2023-05-09T07:56:07;26.85;;;20.10;;
8232;SDS011;4157;48.074;9.952;2023-05-09T07:58:35;28.15;;;21.15;;
8232;SDS011;4157;48.074;9.952;2023-05-09T08:01:03;29.15;;;22.77;;
8232;SDS011;4157;48.074;9.952;2023-05-09T08:03:31;29.75;;;20.73;;
8232;SDS011;4157;48.074;9.952;2023-05-09T08:05:58;26.35;;;19.15;;
8232;SDS011;4157;48.074;9.952;2023-05-09T08:08:26;21.80;;;17.10;;
8232;SDS011;4157;48.074;9.952;2023-05-09T08:10:55;23.27;;;18.60;;
8232;SDS011;4157;48.074;9.952;2023-05-09T08:13:23;21.10;;;17.80;;
8232;SDS011;4157;48.074;9.952;2023-05-09T08:15:51;25.33;;;19.52;;
8232;SDS011;4157;48.074;9.952;2023-05-09T08:18:18;23.45;;;17.70;;
8232;SDS011;4157;48.074;9.952;2023-05-09T08:20:46;23.38;;;18.50;;
8232;SDS011;4157;48.074;9.952;2023-05-09T08:23:14;21.58;;;16.17;;
8232;SDS011;4157;48.074;9.952;2023-05-09T08:25:41;19.08;;;15.30;;
8232;SDS011;4157;48.074;9.952;2023-05-09T08:28:11;21.15;;;16.73;;
8232;SDS011;4157;48.074;9.952;2023-05-09T08:30:38;19.08;;;16.58;;
8232;SDS011;4157;48.074;9.952;2023-05-09T08:33:06;20.95;;;16.17;;
8232;SDS011;4157;48.074;9.952;2023-05-09T08:35:34;16.77;;;13.05;;
8232;SDS011;4157;48.074;9.952;2023-05-09T08:38:01;17.25;;;14.02;;
8232;SDS011;4157;48.074;9.952;2023-05-09T08:40:29;18.45;;;14.40;;
8232;SDS011;4157;48.074;9.952;2023-05-09T08:42:56;18.42;;;14.70;;
8232;SDS011;4157;48.074;9.952;2023-05-09T08:45:25;18.27;;;14.00;;
8232;SDS011;4157;48.074;9.952;2023-05-09T08:47:55;19.15;;;14.38;;
8232;SDS011;4157;48.074;9.952;2023-05-09T08:50:23;20.05;;;15.40;;
8232;SDS011;4157;48.074;9.952;2023-05-09T08:52:51;16.73;;;12.90;;
8232;SDS011;4157;48.074;9.952;2023-05-09T08:55:20;16.90;;;13.60;;
8232;SDS011;4157;48.074;9.952;2023-05-09T08:57:48;21.10;;;17.35;;
8232;SDS011;4157;48.074;9.952;2023-05-09T09:00:16;26.85;;;21.23;;
8232;SDS011;4157;48.074;9.952;2023-05-09T09:02:46;27.38;;;21.63;;
8232;SDS011;4157;48.074;9.952;2023-05-09T09:05:14;28.73;;;21.35;;
8232;SDS011;4157;48.074;9.952;2023-05-09T09:07:43;27.77;;;20.88;;
8232;SDS011;4157;48.074;9.952;2023-05-09T09:10:11;28.83;;;22.73;;
8232;SDS011;4157;48.074;9.952;2023-05-09T09:12:39;24.92;;;19.90;;
8232;SDS011;4157;48.074;9.952;2023-05-09T09:15:08;25.83;;;19.42;;
8232;SDS011;4157;48.074;9.952;2023-05-09T09:17:38;23.73;;;18.98;;
8232;SDS011;4157;48.074;9.952;2023-05-09T09:20:09;21.20;;;17.60;;
8232;SDS011;4157;48.074;9.952;2023-05-09T09:22:38;19.35;;;15.13;;
8232;SDS011;4157;48.074;9.952;2023-05-09T09:25:09;19.90;;;16.45;;
8232;SDS011;4157;48.074;9.952;2023-05-09T09:27:36;20.98;;;16.23;;
8232;SDS011;4157;48.074;9.952;2023-05-09T09:30:06;16.85;;;14.43;;
8232;SDS011;4157;48.074;9.952;2023-05-09T09:32:34;17.58;;;14.20;;
8232;SDS011;4157;48.074;9.952;2023-05-09T09:35:03;18.10;;;13.95;;
8232;SDS011;4157;48.074;9.952;2023-05-09T09:37:34;19.38;;;15.52;;
8232;SDS011;4157;48.074;9.952;2023-05-09T09:40:02;18.25;;;14.82;;
8232;SDS011;4157;48.074;9.952;2023-05-09T09:42:38;18.45;;;15.30;;
8232;SDS011;4157;48.074;9.952;2023-05-09T09:45:08;20.00;;;16.30;;
8232;SDS011;4157;48.074;9.952;2023-05-09T09:47:36;19.45;;;16.00;;
8232;SDS011;4157;48.074;9.952;2023-05-09T09:50:08;18.25;;;14.63;;
8232;SDS011;4157;48.074;9.952;2023-05-09T09:52:37;19.63;;;15.30;;
8232;SDS011;4157;48.074;9.952;2023-05-09T09:55:08;17.77;;;13.82;;
8232;SDS011;4157;48.074;9.952;2023-05-09T09:57:36;16.38;;;12.27;;
8232;SDS011;4157;48.074;9.952;2023-05-09T10:00:06;17.27;;;13.40;;
8232;SDS011;4157;48.074;9.952;2023-05-09T10:02:35;16.52;;;13.18;;
8232;SDS011;4157;48.074;9.952;2023-05-09T10:05:17;18.17;;;14.25;;
8232;SDS011;4157;48.074;9.952;2023-05-09T10:07:46;18.38;;;14.80;;
8232;SDS011;4157;48.074;9.952;2023-05-09T10:10:16;18.17;;;14.05;;
8232;SDS011;4157;48.074;9.952;2023-05-09T10:12:44;15.57;;;11.88;;
8232;SDS011;4157;48.074;9.952;2023-05-09T10:15:12;15.10;;;11.63;;
8232;SDS011;4157;48.074;9.952;2023-05-09T10:17:43;14.20;;;11.57;;
8232;SDS011;4157;48.074;9.952;2023-05-09T10:20:11;15.98;;;12.77;;
8232;SDS011;4157;48.074;9.952;2023-05-09T10:22:39;15.50;;;12.38;;
8232;SDS011;4157;48.074;9.952;2023-05-09T10:25:09;15.95;;;12.20;;
8232;SDS011;4157;48.074;9.952;2023-05-09T10:27:40;14.23;;;12.13;;
8232;SDS011;4157;48.074;9.952;2023-05-09T10:30:12;15.20;;;11.98;;
8232;SDS011;4157;48.074;9.952;2023-05-09T10:32:42;13.07;;;10.15;;
8232;SDS011;4157;48.074;9.952;2023-05-09T10:35:12;13.05;;;10.48;;
8232;SDS011;4157;48.074;9.952;2023-05-09T10:37:41;14.05;;;11.02;;
8232;SDS011;4157;48.074;9.952;2023-05-09T10:40:11;15.23;;;12.15;;
8232;SDS011;4157;48.074;9.952;2023-05-09T10:42:40;13.30;;;10.25;;
8232;SDS011;4157;48.074;9.952;2023-05-09T10:45:09;15.18;;;11.15;;
8232;SDS011;4157;48.074;9.952;2023-05-09T10:47:39;13.38;;;10.63;;
8232;SDS011;4157;48.074;9.952;2023-05-09T10:50:08;14.18;;;11.88;;
8232;SDS011;4157;48.074;9.952;2023-05-09T10:55:20;12.82;;;10.60;;
8232;SDS011;4157;48.074;9.952;2023-05-09T10:57:52;14.15;;;11.23;;
8232;SDS011;4157;48.074;9.952;2023-05-09T11:00:23;13.65;;;11.15;;
8232;SDS011;4157;48.074;9.952;2023-05-09T11:03:04;12.52;;;10.48;;
8232;SDS011;4157;48.074;9.952;2023-05-09T11:05:37;11.65;;;9.57;;
8232;SDS011;4157;48.074;9.952;2023-05-09T11:08:21;15.00;;;11.80;;
8232;SDS011;4157;48.074;9.952;2023-05-09T11:10:51;13.95;;;10.70;;
8232;SDS011;4157;48.074;9.952;2023-05-09T11:13:19;12.95;;;10.88;;
8232;SDS011;4157;48.074;9.952;2023-05-09T11:16:02;11.95;;;9.75;;
8232;SDS011;4157;48.074;9.952;2023-05-09T11:18:30;13.43;;;9.98;;
8232;SDS011;4157;48.074;9.952;2023-05-09T11:21:00;12.63;;;9.68;;
8232;SDS011;4157;48.074;9.952;2023-05-09T11:23:33;12.02;;;9.27;;
8232;SDS011;4157;48.074;9.952;2023-05-09T11:26:06;12.77;;;10.10;;
8232;SDS011;4157;48.074;9.952;2023-05-09T11:28:35;16.63;;;10.90;;
8232;SDS011;4157;48.074;9.952;2023-05-09T11:31:09;14.23;;;11.15;;
8232;SDS011;4157;48.074;9.952;2023-05-09T11:33:37;13.18;;;9.77;;
8232;SDS011;4157;48.074;9.952;2023-05-09T11:36:15;12.73;;;9.43;;
8232;SDS011;4157;48.074;9.952;2023-05-09T11:38:44;11.25;;;8.82;;
8232;SDS011;4157;48.074;9.952;2023-05-09T11:41:14;9.95;;;6.97;;
8232;SDS011;4157;48.074;9.952;2023-05-09T11:43:42;9.65;;;7.30;;
8232;SDS011;4157;48.074;9.952;2023-05-09T11:46:10;9.38;;;6.75;;
8232;SDS011;4157;48.074;9.952;2023-05-09T11:48:38;7.97;;;5.97;;
8232;SDS011;4157;48.074;9.952;2023-05-09T11:51:06;10.30;;;7.20;;
8232;SDS011;4157;48.074;9.952;2023-05-09T11:53:34;10.23;;;7.72;;
8232;SDS011;4157;48.074;9.952;2023-05-09T11:56:10;9.50;;;7.18;;
8232;SDS011;4157;48.074;9.952;2023-05-09T11:58:39;10.68;;;8.38;;
8232;SDS011;4157;48.074;9.952;2023-05-09T12:01:07;9.27;;;7.70;;
8232;SDS011;4157;48.074;9.952;2023-05-09T12:03:34;11.45;;;8.32;;
8232;SDS011;4157;48.074;9.952;2023-05-09T12:06:02;10.55;;;8.00;;
8232;SDS011;4157;48.074;9.952;2023-05-09T12:08:30;9.90;;;8.20;;
8232;SDS011;4157;48.074;9.952;2023-05-09T12:11:06;9.85;;;7.47;;
8232;SDS011;4157;48.074;9.952;2023-05-09T12:13:34;10.15;;;7.10;;
8232;SDS011;4157;48.074;9.952;2023-05-09T12:16:03;11.27;;;8.35;;
8232;SDS011;4157;48.074;9.952;2023-05-09T12:18:32;10.45;;;8.25;;
8232;SDS011;4157;48.074;9.952;2023-05-09T12:21:01;11.13;;;7.40;;
8232;SDS011;4157;48.074;9.952;2023-05-09T12:23:31;8.93;;;6.45;;
8232;SDS011;4157;48.074;9.952;2023-05-09T12:26:00;8.82;;;6.30;;
8232;SDS011;4157;48.074;9.952;2023-05-09T12:28:28;10.07;;;7.57;;
8232;SDS011;4157;48.074;9.952;2023-05-09T12:30:56;9.27;;;6.07;;
8232;SDS011;4157;48.074;9.952;2023-05-09T12:33:26;11.95;;;7.28;;
8232;SDS011;4157;48.074;9.952;2023-05-09T12:36:00;8.88;;;6.57;;
8232;SDS011;4157;48.074;9.952;2023-05-09T12:38:28;8.20;;;6.22;;
8232;SDS011;4157;48.074;9.952;2023-05-09T12:40:59;9.98;;;6.25;;
8232;SDS011;4157;48.074;9.952;2023-05-09T12:43:31;8.85;;;6.88;;
8232;SDS011;4157;48.074;9.952;2023-05-09T12:45:59;9.63;;;6.75;;
8232;SDS011;4157;48.074;9.952;2023-05-09T12:48:29;9.07;;;6.57;;
8232;SDS011;4157;48.074;9.952;2023-05-09T12:51:04;8.70;;;6.15;;
8232;SDS011;4157;48.074;9.952;2023-05-09T12:53:35;9.13;;;6.75;;
8232;SDS011;4157;48.074;9.952;2023-05-09T12:56:04;7.32;;;5.78;;
8232;SDS011;4157;48.074;9.952;2023-05-09T12:58:37;9.13;;;6.45;;
8232;SDS011;4157;48.074;9.952;2023-05-09T13:01:06;8.73;;;6.00;;
8232;SDS011;4157;48.074;9.952;2023-05-09T13:03:35;9.85;;;7.00;;
8232;SDS011;4157;48.074;9.952;2023-05-09T13:06:03;10.52;;;6.90;;
8232;SDS011;4157;48.074;9.952;2023-05-09T13:08:32;9.07;;;6.20;;
8232;SDS011;4157;48.074;9.952;2023-05-09T13:10:59;9.05;;;6.75;;
8232;SDS011;4157;48.074;9.952;2023-05-09T13:13:27;9.02;;;6.05;;
8232;SDS011;4157;48.074;9.952;2023-05-09T13:15:55;8.27;;;5.68;;
8232;SDS011;4157;48.074;9.952;2023-05-09T13:18:23;8.88;;;5.78;;
8232;SDS011;4157;48.074;9.952;2023-05-09T13:20:52;9.70;;;5.75;;
8232;SDS011;4157;48.074;9.952;2023-05-09T13:23:20;9.07;;;6.07;;
8232;SDS011;4157;48.074;9.952;2023-05-09T13:25:47;7.70;;;5.95;;
8232;SDS011;4157;48.074;9.952;2023-05-09T13:28:16;8.48;;;5.60;;
8232;SDS011;4157;48.074;9.952;2023-05-09T13:30:43;8.57;;;6.30;;
8232;SDS011;4157;48.074;9.952;2023-05-09T13:33:11;7.43;;;5.50;;
8232;SDS011;4157;48.074;9.952;2023-05-09T13:35:39;6.55;;;4.90;;
8232;SDS011;4157;48.074;9.952;2023-05-09T13:38:08;8.00;;;5.47;;
8232;SDS011;4157;48.074;9.952;2023-05-09T13:40:35;6.88;;;4.90;;
8232;SDS011;4157;48.074;9.952;2023-05-09T13:43:03;7.85;;;5.47;;
8232;SDS011;4157;48.074;9.952;2023-05-09T13:45:31;7.68;;;5.22;;
8232;SDS011;4157;48.074;9.952;2023-05-09T13:47:59;7.10;;;5.35;;
8232;SDS011;4157;48.074;9.952;2023-05-09T13:50:26;7.40;;;5.38;;
8232;SDS011;4157;48.074;9.952;2023-05-09T13:52:54;7.43;;;5.28;;
8232;SDS011;4157;48.074;9.952;2023-05-09T13:55:23;6.90;;;5.05;;
8232;SDS011;4157;48.074;9.952;2023-05-09T13:57:51;7.45;;;5.03;;
8232;SDS011;4157;48.074;9.952;2023-05-09T14:00:19;6.80;;;4.70;;
8232;SDS011;4157;48.074;9.952;2023-05-09T14:02:49;6.32;;;4.75;;
8232;SDS011;4157;48.074;9.952;2023-05-09T14:05:17;6.40;;;5.13;;
8232;SDS011;4157;48.074;9.952;2023-05-09T14:07:45;7.72;;;5.00;;
8232;SDS011;4157;48.074;9.952;2023-05-09T14:10:13;7.82;;;5.40;;
8232;SDS011;4157;48.074;9.952;2023-05-09T14:12:43;7.57;;;4.88;;
8232;SDS011;4157;48.074;9.952;2023-05-09T14:15:11;6.55;;;4.47;;
8232;SDS011;4157;48.074;9.952;2023-05-09T14:17:39;6.35;;;4.50;;
8232;SDS011;4157;48.074;9.952;2023-05-09T14:20:08;7.30;;;4.68;;
8232;SDS011;4157;48.074;9.952;2023-05-09T14:22:36;10.05;;;5.43;;
8232;SDS011;4157;48.074;9.952;2023-05-09T14:25:03;8.18;;;5.13;;
8232;SDS011;4157;48.074;9.952;2023-05-09T14:27:31;7.18;;;4.57;;
8232;SDS011;4157;48.074;9.952;2023-05-09T14:30:03;8.40;;;4.70;;
8232;SDS011;4157;48.074;9.952;2023-05-09T14:32:31;6.90;;;5.13;;
8232;SDS011;4157;48.074;9.952;2023-05-09T14:34:58;5.70;;;4.00;;
8232;SDS011;4157;48.074;9.952;2023-05-09T14:37:26;6.30;;;4.55;;
8232;SDS011;4157;48.074;9.952;2023-05-09T14:39:54;6.72;;;4.03;;
8232;SDS011;4157;48.074;9.952;2023-05-09T14:42:21;6.65;;;4.35;;
8232;SDS011;4157;48.074;9.952;2023-05-09T14:44:49;6.88;;;4.55;;
8232;SDS011;4157;48.074;9.952;2023-05-09T14:47:18;5.55;;;3.97;;
8232;SDS011;4157;48.074;9.952;2023-05-09T14:49:46;6.43;;;4.20;;
8232;SDS011;4157;48.074;9.952;2023-05-09T14:52:13;6.90;;;4.55;;
8232;SDS011;4157;48.074;9.952;2023-05-09T14:54:42;6.43;;;4.18;;
8232;SDS011;4157;48.074;9.952;2023-05-09T14:57:10;6.30;;;4.05;;
8232;SDS011;4157;48.074;9.952;2023-05-09T14:59:37;6.75;;;4.63;;
8232;SDS011;4157;48.074;9.952;2023-05-09T15:02:05;5.47;;;3.90;;
8232;SDS011;4157;48.074;9.952;2023-05-09T15:04:34;6.05;;;3.90;;
8232;SDS011;4157;48.074;9.952;2023-05-09T15:07:02;6.32;;;3.50;;
8232;SDS011;4157;48.074;9.952;2023-05-09T15:09:30;5.78;;;3.10;;
8232;SDS011;4157;48.074;9.952;2023-05-09T15:11:58;5.82;;;3.22;;